Time;durP1;ratioP1;P1;durP2;ratioP2;P2;SDS_P1;SDS_P2;PMS_P1;PMS_P2;Temp;Humidity;BMP_temperature;BMP_pressure;BME280_temperature;BME280_humidity;BME280_pressure;Samples;Min_cycle;Max_cycle;Signal;HPM_P1;HPM_P2
2023/08/07 00:02:00;;;;;;;2.37;1.67;;;;;;;;;;5120459;28;20213;-52
2023/08/07 00:04:26;;;;;;;2.50;1.97;;;;;;;;;;5120149;28;20175;-52
2023/08/07 00:06:52;;;;;;;4.10;1.87;;;;;;;;;;5119433;28;20178;-51
2023/08/07 00:09:18;;;;;;;3.40;1.87;;;;;;;;;;5119363;28;20278;-51
2023/08/07 00:11:44;;;;;;;3.73;1.80;;;;;;;;;;5119170;28;20551;-47
2023/08/07 00:14:10;;;;;;;4.97;1.60;;;;;;;;;;5119381;28;20287;-51
2023/08/07 00:16:36;;;;;;;4.43;1.90;;;;;;;;;;5119239;28;20190;-48
2023/08/07 00:19:03;;;;;;;3.97;1.63;;;;;;;;;;5119182;28;20232;-50
2023/08/07 00:21:29;;;;;;;3.23;1.83;;;;;;;;;;5119099;28;20178;-48
2023/08/07 00:23:58;;;;;;;1.70;1.20;;;;;;;;;;5119003;28;20163;-49
2023/08/07 00:26:24;;;;;;;4.10;1.87;;;;;;;;;;5119463;28;20178;-49
2023/08/07 00:28:50;;;;;;;2.00;1.33;;;;;;;;;;5119150;28;20477;-50
2023/08/07 00:31:16;;;;;;;1.33;1.07;;;;;;;;;;5119147;28;20554;-50
2023/08/07 00:33:42;;;;;;;3.13;1.73;;;;;;;;;;5119633;28;20171;-48
2023/08/07 00:36:08;;;;;;;2.07;1.40;;;;;;;;;;5118925;28;20175;-47
2023/08/07 00:38:34;;;;;;;2.47;1.47;;;;;;;;;;5119376;28;20163;-49
2023/08/07 00:41:00;;;;;;;2.77;1.60;;;;;;;;;;5118484;28;20171;-47
2023/08/07 00:43:26;;;;;;;3.63;1.60;;;;;;;;;;5118542;28;20203;-47
2023/08/07 00:45:52;;;;;;;4.07;1.43;;;;;;;;;;5119077;28;20168;-52
2023/08/07 00:48:25;;;;;;;1.73;1.30;;;;;;;;;;5119278;28;20159;-51
2023/08/07 00:50:52;;;;;;;2.17;1.53;;;;;;;;;;5119708;28;20224;-49
2023/08/07 00:53:18;;;;;;;5.83;2.20;;;;;;;;;;5118527;28;20263;-47
2023/08/07 00:55:44;;;;;;;2.07;1.47;;;;;;;;;;5118184;28;20186;-49
2023/08/07 00:58:11;;;;;;;1.83;1.40;;;;;;;;;;5118981;28;20160;-51
2023/08/07 01:00:37;;;;;;;1.57;1.33;;;;;;;;;;5118473;28;20231;-47
2023/08/07 01:03:05;;;;;;;1.93;1.10;;;;;;;;;;5117777;28;20214;-49
2023/08/07 01:05:31;;;;;;;2.13;1.77;;;;;;;;;;5117486;28;20178;-48
2023/08/07 01:07:57;;;;;;;4.17;1.70;;;;;;;;;;5118199;28;20164;-49
2023/08/07 01:10:26;;;;;;;2.10;1.50;;;;;;;;;;5117720;28;20563;-47
2023/08/07 01:13:05;;;;;;;5.10;1.47;;;;;;;;;;5117682;28;20167;-52
2023/08/07 01:15:31;;;;;;;1.50;1.40;;;;;;;;;;5119004;28;20596;-51
2023/08/07 01:17:57;;;;;;;2.60;1.40;;;;;;;;;;5118414;28;20254;-47
2023/08/07 01:20:23;;;;;;;2.70;1.40;;;;;;;;;;5116726;28;20167;-51
2023/08/07 01:22:51;;;;;;;3.77;1.60;;;;;;;;;;5117936;28;20207;-49
2023/08/07 01:25:17;;;;;;;2.33;1.60;;;;;;;;;;5118225;28;20535;-49
2023/08/07 01:28:18;;;;;;;3.43;1.77;;;;;;;;;;5118440;28;20171;-47
2023/08/07 01:30:48;;;;;;;3.40;1.40;;;;;;;;;;5020382;28;20180;-47
2023/08/07 01:33:18;;;;;;;2.63;1.10;;;;;;;;;;5103951;27;20210;-49
2023/08/07 01:35:46;;;;;;;2.60;1.60;;;;;;;;;;5117605;28;20163;-47
2023/08/07 01:38:13;;;;;;;3.10;1.63;;;;;;;;;;5117615;28;20168;-49
2023/08/07 01:40:40;;;;;;;2.53;1.40;;;;;;;;;;5118011;28;20190;-50
2023/08/07 01:43:06;;;;;;;4.20;1.70;;;;;;;;;;5117652;28;20286;-51
2023/08/07 01:45:32;;;;;;;3.17;1.43;;;;;;;;;;5116822;28;20512;-48
2023/08/07 01:48:03;;;;;;;2.03;1.47;;;;;;;;;;5116571;28;20266;-50
2023/08/07 01:50:29;;;;;;;4.40;1.70;;;;;;;;;;5117104;28;20265;-48
2023/08/07 01:52:55;;;;;;;3.27;1.60;;;;;;;;;;5117397;28;20178;-48
2023/08/07 01:55:22;;;;;;;4.47;1.37;;;;;;;;;;5117913;28;20171;-47
2023/08/07 01:57:47;;;;;;;3.30;1.80;;;;;;;;;;5116467;28;20176;-48
2023/08/07 02:00:13;;;;;;;2.20;1.30;;;;;;;;;;5117585;28;20341;-48
2023/08/07 02:02:39;;;;;;;3.23;1.90;;;;;;;;;;5117398;28;20610;-52
2023/08/07 02:05:06;;;;;;;2.03;1.23;;;;;;;;;;5116938;28;20525;-49
2023/08/07 02:07:32;;;;;;;3.00;1.70;;;;;;;;;;5117389;28;20269;-50
2023/08/07 02:09:58;;;;;;;2.83;1.73;;;;;;;;;;5117924;28;20246;-48
2023/08/07 02:12:25;;;;;;;1.33;1.17;;;;;;;;;;5116928;28;20184;-48
2023/08/07 02:14:51;;;;;;;2.03;1.20;;;;;;;;;;5117096;28;20638;-48
2023/08/07 02:17:17;;;;;;;2.23;1.70;;;;;;;;;;5116806;28;20539;-51
2023/08/07 02:19:43;;;;;;;2.17;1.37;;;;;;;;;;5117243;28;20179;-50
2023/08/07 02:22:09;;;;;;;2.63;1.27;;;;;;;;;;5117095;28;20207;-50
2023/08/07 02:24:35;;;;;;;3.13;1.37;;;;;;;;;;5117750;28;20459;-51
2023/08/07 02:27:01;;;;;;;3.43;1.40;;;;;;;;;;5117952;28;20181;-46
2023/08/07 02:29:27;;;;;;;4.13;1.73;;;;;;;;;;5118345;28;20163;-49
2023/08/07 02:31:53;;;;;;;2.13;1.30;;;;;;;;;;5117937;28;20168;-49
2023/08/07 02:34:19;;;;;;;1.83;1.33;;;;;;;;;;5117295;28;20176;-50
2023/08/07 02:36:45;;;;;;;3.50;1.60;;;;;;;;;;5117175;28;20171;-50
2023/08/07 02:39:11;;;;;;;2.83;1.53;;;;;;;;;;5116601;28;20279;-51
2023/08/07 02:41:36;;;;;;;3.73;1.73;;;;;;;;;;5115913;28;20222;-50
2023/08/07 02:44:02;;;;;;;1.67;1.13;;;;;;;;;;5115958;28;20172;-50
2023/08/07 02:46:29;;;;;;;5.40;1.80;;;;;;;;;;5117297;28;20171;-52
2023/08/07 02:48:55;;;;;;;1.90;1.43;;;;;;;;;;5119496;28;20196;-49
2023/08/07 02:51:21;;;;;;;3.13;1.30;;;;;;;;;;5119696;28;20172;-51
2023/08/07 02:53:46;;;;;;;1.63;1.10;;;;;;;;;;5118984;28;20171;-48
2023/08/07 02:56:12;;;;;;;3.70;1.67;;;;;;;;;;5119190;28;20171;-49
2023/08/07 02:58:38;;;;;;;3.10;1.20;;;;;;;;;;5119627;28;20184;-48
2023/08/07 03:01:06;;;;;;;2.13;1.40;;;;;;;;;;5119639;28;20219;-49
2023/08/07 03:03:32;;;;;;;2.27;1.40;;;;;;;;;;5121278;28;20230;-48
2023/08/07 03:05:58;;;;;;;3.13;1.43;;;;;;;;;;5121410;28;20543;-49
2023/08/07 03:08:26;;;;;;;1.10;0.93;;;;;;;;;;5120139;28;20171;-47
2023/08/07 03:10:53;;;;;;;5.30;1.20;;;;;;;;;;5120365;28;20178;-47
2023/08/07 03:13:19;;;;;;;3.13;1.40;;;;;;;;;;5120160;28;20167;-49
2023/08/07 03:15:44;;;;;;;3.00;1.17;;;;;;;;;;5119927;28;20228;-48
2023/08/07 03:18:10;;;;;;;2.80;1.40;;;;;;;;;;5119256;28;20179;-49
2023/08/07 03:20:37;;;;;;;1.33;1.10;;;;;;;;;;5119381;28;20171;-47
2023/08/07 03:23:03;;;;;;;1.33;1.20;;;;;;;;;;5120142;28;20203;-47
2023/08/07 03:25:29;;;;;;;2.57;0.90;;;;;;;;;;5120050;28;20186;-56
2023/08/07 03:27:55;;;;;;;2.97;1.30;;;;;;;;;;5119670;28;20766;-47
2023/08/07 03:30:21;;;;;;;1.67;1.17;;;;;;;;;;5120313;28;20239;-49
2023/08/07 03:32:53;;;;;;;1.33;1.23;;;;;;;;;;5119987;28;20185;-47
2023/08/07 03:38:22;;;;;;;2.73;1.30;;;;;;;;;;5120843;28;20166;-47
2023/08/07 03:40:48;;;;;;;2.53;1.20;;;;;;;;;;5119955;28;20175;-47
2023/08/07 03:43:14;;;;;;;1.30;1.20;;;;;;;;;;5119898;28;20214;-47
2023/08/07 03:45:40;;;;;;;3.43;1.93;;;;;;;;;;5119750;28;20164;-48
2023/08/07 03:48:06;;;;;;;1.30;1.20;;;;;;;;;;5120877;28;20184;-47
2023/08/07 03:50:34;;;;;;;3.17;1.70;;;;;;;;;;5119282;28;20168;-49
2023/08/07 03:53:01;;;;;;;1.93;1.00;;;;;;;;;;5119329;28;20269;-50
2023/08/07 03:55:27;;;;;;;2.40;1.57;;;;;;;;;;5118561;28;20187;-49
2023/08/07 03:57:53;;;;;;;2.57;1.70;;;;;;;;;;5118659;28;20168;-48
2023/08/07 04:00:20;;;;;;;4.60;1.80;;;;;;;;;;5119311;28;20225;-49
2023/08/07 04:02:46;;;;;;;3.90;1.23;;;;;;;;;;5118807;28;20591;-49
2023/08/07 04:05:12;;;;;;;5.43;1.60;;;;;;;;;;5119301;28;20465;-47
2023/08/07 04:07:38;;;;;;;3.80;1.47;;;;;;;;;;5119324;28;20542;-47
2023/08/07 04:10:04;;;;;;;2.47;1.30;;;;;;;;;;5120160;28;20199;-51
2023/08/07 04:12:30;;;;;;;3.23;1.60;;;;;;;;;;5119953;28;20186;-49
2023/08/07 04:14:56;;;;;;;4.73;1.60;;;;;;;;;;5119098;28;20168;-47
2023/08/07 04:17:22;;;;;;;6.40;1.60;;;;;;;;;;5119995;28;20255;-50
2023/08/07 04:19:52;;;;;;;4.53;1.80;;;;;;;;;;5119880;28;20218;-51
2023/08/07 04:22:18;;;;;;;3.90;1.70;;;;;;;;;;5119837;28;20251;-52
2023/08/07 04:24:44;;;;;;;3.57;1.50;;;;;;;;;;5119411;28;20164;-51
2023/08/07 04:27:10;;;;;;;5.03;1.73;;;;;;;;;;5119332;28;20197;-52
2023/08/07 04:29:36;;;;;;;4.50;2.10;;;;;;;;;;5118940;28;20631;-47
2023/08/07 04:32:02;;;;;;;6.17;1.90;;;;;;;;;;5118697;28;20232;-51
2023/08/07 04:34:28;;;;;;;6.17;1.60;;;;;;;;;;5119442;28;20476;-48
2023/08/07 04:36:56;;;;;;;6.27;1.70;;;;;;;;;;5119635;28;20604;-49
2023/08/07 04:39:22;;;;;;;5.10;1.50;;;;;;;;;;5118740;28;20175;-49
2023/08/07 04:41:51;;;;;;;7.47;1.90;;;;;;;;;;5118951;28;20211;-50
2023/08/07 04:44:17;;;;;;;4.10;2.17;;;;;;;;;;5118959;28;20175;-47
2023/08/07 04:46:44;;;;;;;3.10;1.90;;;;;;;;;;5118417;28;20168;-50
2023/08/07 04:49:09;;;;;;;6.37;1.80;;;;;;;;;;5117852;28;20167;-51
2023/08/07 04:51:36;;;;;;;3.90;1.67;;;;;;;;;;5118508;28;20176;-47
2023/08/07 04:54:02;;;;;;;5.90;1.93;;;;;;;;;;5117640;28;20178;-49
2023/08/07 04:56:28;;;;;;;4.27;1.10;;;;;;;;;;5118188;28;20184;-51
2023/08/07 04:58:54;;;;;;;5.37;2.57;;;;;;;;;;5119161;28;20473;-51
2023/08/07 05:01:20;;;;;;;6.60;1.80;;;;;;;;;;5118458;28;20257;-47
2023/08/07 05:03:46;;;;;;;8.03;2.57;;;;;;;;;;5118270;28;20651;-49
2023/08/07 05:06:12;;;;;;;6.17;2.53;;;;;;;;;;5118183;28;20179;-49
2023/08/07 05:08:39;;;;;;;6.40;2.40;;;;;;;;;;5118167;28;20167;-49
2023/08/07 05:11:05;;;;;;;4.43;2.10;;;;;;;;;;5117965;28;20183;-54
2023/08/07 05:13:30;;;;;;;9.57;1.80;;;;;;;;;;5117660;28;20172;-49
2023/08/07 05:15:57;;;;;;;7.33;2.17;;;;;;;;;;5117087;28;20171;-48
2023/08/07 05:18:23;;;;;;;4.90;2.03;;;;;;;;;;5116665;28;20171;-49
2023/08/07 05:20:48;;;;;;;5.17;1.90;;;;;;;;;;5116338;28;20273;-49
2023/08/07 05:23:14;;;;;;;4.17;2.50;;;;;;;;;;5116454;28;20199;-50
2023/08/07 05:25:40;;;;;;;5.70;1.83;;;;;;;;;;5116403;28;20266;-46
2023/08/07 05:28:06;;;;;;;7.87;2.33;;;;;;;;;;5116260;28;20171;-49
2023/08/07 05:30:32;;;;;;;6.87;1.90;;;;;;;;;;5117459;28;20247;-47
2023/08/07 05:32:58;;;;;;;5.87;2.10;;;;;;;;;;5116526;28;20275;-47
2023/08/07 05:35:24;;;;;;;5.23;1.63;;;;;;;;;;5116156;28;20203;-52
2023/08/07 05:37:50;;;;;;;3.53;2.00;;;;;;;;;;5114762;28;20236;-47
2023/08/07 05:40:16;;;;;;;4.63;1.90;;;;;;;;;;5116146;28;20163;-49
2023/08/07 05:42:42;;;;;;;6.13;2.43;;;;;;;;;;5116757;28;20226;-52
2023/08/07 05:45:09;;;;;;;9.97;2.57;;;;;;;;;;5115719;28;20171;-47
2023/08/07 05:47:35;;;;;;;3.60;2.00;;;;;;;;;;5115464;28;20167;-49
2023/08/07 05:50:02;;;;;;;2.93;1.50;;;;;;;;;;5115502;28;20186;-49
2023/08/07 05:52:27;;;;;;;4.50;1.87;;;;;;;;;;5116134;28;20175;-51
2023/08/07 05:54:53;;;;;;;4.73;1.90;;;;;;;;;;5116197;28;20674;-48
2023/08/07 05:57:19;;;;;;;5.27;1.90;;;;;;;;;;5116193;28;20186;-49
2023/08/07 05:59:45;;;;;;;7.17;2.50;;;;;;;;;;5115869;28;20211;-51
2023/08/07 06:02:11;;;;;;;7.07;3.10;;;;;;;;;;5116601;28;20199;-48
2023/08/07 06:04:38;;;;;;;3.43;1.60;;;;;;;;;;5116859;28;20171;-51
2023/08/07 06:07:04;;;;;;;10.27;2.20;;;;;;;;;;5116337;28;20236;-50
2023/08/07 06:09:33;;;;;;;5.97;2.03;;;;;;;;;;5116485;28;20167;-47
2023/08/07 06:11:59;;;;;;;8.57;2.20;;;;;;;;;;5115973;28;20179;-48
2023/08/07 06:14:25;;;;;;;7.70;2.43;;;;;;;;;;5116248;28;20175;-48
2023/08/07 06:16:51;;;;;;;12.77;2.23;;;;;;;;;;5116206;28;20271;-48
2023/08/07 06:19:17;;;;;;;5.97;2.00;;;;;;;;;;5115192;28;20179;-54
2023/08/07 06:21:43;;;;;;;7.17;2.30;;;;;;;;;;5117157;28;20330;-50
2023/08/07 06:24:09;;;;;;;9.00;2.30;;;;;;;;;;5119668;28;20582;-51
2023/08/07 06:26:35;;;;;;;6.03;2.20;;;;;;;;;;5119618;28;20179;-50
2023/08/07 06:29:01;;;;;;;11.67;2.10;;;;;;;;;;5120458;28;20172;-47
2023/08/07 06:31:36;;;;;;;7.80;2.93;;;;;;;;;;5118802;28;20171;-47
2023/08/07 06:34:02;;;;;;;8.03;3.27;;;;;;;;;;5120228;28;20167;-47
2023/08/07 06:36:28;;;;;;;8.93;2.13;;;;;;;;;;5119085;28;20231;-50
2023/08/07 06:38:54;;;;;;;10.43;2.90;;;;;;;;;;5118735;27;20683;-51
2023/08/07 06:41:20;;;;;;;6.50;2.53;;;;;;;;;;5118122;28;20830;-47
2023/08/07 06:43:46;;;;;;;6.80;2.57;;;;;;;;;;5117911;28;20202;-50
2023/08/07 06:46:12;;;;;;;8.67;3.17;;;;;;;;;;5117284;28;20167;-47
2023/08/07 06:48:38;;;;;;;8.53;2.50;;;;;;;;;;5118745;28;20171;-52
2023/08/07 06:51:04;;;;;;;11.50;2.73;;;;;;;;;;5118778;28;20167;-50
2023/08/07 06:53:30;;;;;;;6.47;2.57;;;;;;;;;;5118988;28;20175;-50
2023/08/07 06:55:56;;;;;;;9.13;2.90;;;;;;;;;;5119870;28;20171;-48
2023/08/07 06:58:22;;;;;;;12.67;3.53;;;;;;;;;;5119953;28;20167;-50
2023/08/07 07:00:48;;;;;;;4.83;2.30;;;;;;;;;;5119030;28;20540;-51
2023/08/07 07:03:14;;;;;;;14.90;3.30;;;;;;;;;;5119997;28;20273;-47
2023/08/07 07:05:42;;;;;;;11.57;2.87;;;;;;;;;;5118245;28;20171;-49
2023/08/07 07:08:08;;;;;;;11.27;3.23;;;;;;;;;;5117680;28;20174;-47
2023/08/07 07:10:34;;;;;;;11.47;2.90;;;;;;;;;;5116785;28;20184;-48
2023/08/07 07:13:00;;;;;;;11.17;3.00;;;;;;;;;;5115517;28;20167;-48
2023/08/07 07:15:26;;;;;;;8.37;2.70;;;;;;;;;;5116046;28;20224;-47
2023/08/07 07:17:52;;;;;;;14.10;4.17;;;;;;;;;;5115046;28;20177;-52
2023/08/07 07:20:34;;;;;;;9.63;2.87;;;;;;;;;;5113733;28;20164;-51
2023/08/07 07:23:00;;;;;;;15.47;3.20;;;;;;;;;;5116518;28;20195;-48
2023/08/07 07:25:26;;;;;;;8.93;2.90;;;;;;;;;;5117405;28;20167;-48
2023/08/07 07:27:52;;;;;;;19.83;4.53;;;;;;;;;;5116726;28;20342;-47
2023/08/07 07:30:17;;;;;;;10.00;3.10;;;;;;;;;;5116413;28;20614;-49
2023/08/07 07:32:43;;;;;;;12.53;3.67;;;;;;;;;;5115482;28;20194;-47
2023/08/07 07:35:10;;;;;;;7.33;2.90;;;;;;;;;;5115362;28;20171;-50
2023/08/07 07:37:36;;;;;;;13.47;3.13;;;;;;;;;;5115343;28;20449;-49
2023/08/07 07:40:02;;;;;;;16.40;3.53;;;;;;;;;;5114965;28;20566;-48
2023/08/07 07:42:28;;;;;;;11.13;3.13;;;;;;;;;;5115903;28;20707;-47
2023/08/07 07:44:54;;;;;;;7.73;3.07;;;;;;;;;;5115571;28;20693;-49
2023/08/07 07:47:20;;;;;;;10.67;2.93;;;;;;;;;;5115770;28;20228;-49
2023/08/07 07:49:47;;;;;;;8.20;3.27;;;;;;;;;;5115277;28;20284;-49
2023/08/07 07:52:13;;;;;;;8.07;3.00;;;;;;;;;;5110935;28;20260;-50
2023/08/07 07:54:39;;;;;;;10.10;3.30;;;;;;;;;;5116071;28;20207;-48
2023/08/07 07:57:05;;;;;;;10.07;2.53;;;;;;;;;;5115521;28;20207;-50
2023/08/07 07:59:31;;;;;;;11.13;3.03;;;;;;;;;;5115846;28;20182;-49
2023/08/07 08:01:57;;;;;;;17.70;3.87;;;;;;;;;;5115281;28;20200;-48
2023/08/07 08:04:23;;;;;;;12.93;3.20;;;;;;;;;;5115850;28;20167;-51
2023/08/07 08:06:49;;;;;;;12.83;3.50;;;;;;;;;;5116028;28;20319;-50
2023/08/07 08:09:15;;;;;;;10.37;3.33;;;;;;;;;;5114492;28;20210;-51
2023/08/07 08:11:41;;;;;;;8.73;2.77;;;;;;;;;;5115322;28;20522;-51
2023/08/07 08:14:07;;;;;;;12.37;3.37;;;;;;;;;;5115008;28;20171;-48
2023/08/07 08:16:33;;;;;;;8.00;2.50;;;;;;;;;;5115852;28;20164;-49
2023/08/07 08:19:00;;;;;;;11.43;3.13;;;;;;;;;;5116628;28;20198;-50
2023/08/07 08:21:26;;;;;;;12.23;3.30;;;;;;;;;;5117296;28;20261;-48
2023/08/07 08:23:53;;;;;;;10.27;3.00;;;;;;;;;;5118400;28;20251;-49
2023/08/07 08:26:19;;;;;;;10.00;3.23;;;;;;;;;;5116028;28;20180;-53
2023/08/07 08:28:45;;;;;;;13.53;3.90;;;;;;;;;;5116507;28;20178;-48
2023/08/07 08:31:11;;;;;;;13.27;3.67;;;;;;;;;;5116367;28;20163;-47
2023/08/07 08:33:37;;;;;;;9.37;2.87;;;;;;;;;;5114793;28;20648;-51
2023/08/07 08:36:03;;;;;;;11.63;3.30;;;;;;;;;;5115264;28;20499;-50
2023/08/07 08:38:32;;;;;;;12.37;3.37;;;;;;;;;;5115561;28;20171;-47
2023/08/07 08:41:00;;;;;;;13.57;3.10;;;;;;;;;;5114653;28;20179;-50
2023/08/07 08:43:26;;;;;;;11.67;2.90;;;;;;;;;;5113967;28;20214;-47
2023/08/07 08:45:52;;;;;;;12.50;3.50;;;;;;;;;;5114799;28;20191;-51
2023/08/07 08:48:23;;;;;;;7.00;2.57;;;;;;;;;;5113828;28;20479;-49
2023/08/07 08:50:50;;;;;;;12.40;4.33;;;;;;;;;;5114963;28;20178;-48
2023/08/07 08:53:17;;;;;;;14.37;3.77;;;;;;;;;;5114404;28;20734;-46
2023/08/07 08:55:46;;;;;;;14.70;2.83;;;;;;;;;;5114725;28;20190;-47
2023/08/07 08:58:13;;;;;;;10.87;3.30;;;;;;;;;;5115417;28;20187;-49
2023/08/07 09:00:40;;;;;;;12.00;2.87;;;;;;;;;;5113548;28;20259;-49
2023/08/07 09:03:06;;;;;;;11.27;3.27;;;;;;;;;;5115094;28;20215;-51
2023/08/07 09:05:32;;;;;;;15.73;3.77;;;;;;;;;;5114759;28;20220;-47
2023/08/07 09:07:59;;;;;;;8.30;3.00;;;;;;;;;;5115008;28;20456;-49
2023/08/07 09:10:25;;;;;;;13.00;3.33;;;;;;;;;;5115136;28;20226;-51
2023/08/07 09:12:51;;;;;;;13.20;3.53;;;;;;;;;;5114566;28;20171;-48
2023/08/07 09:15:19;;;;;;;9.37;3.00;;;;;;;;;;5115154;28;20385;-49
2023/08/07 09:17:46;;;;;;;11.83;3.53;;;;;;;;;;5114460;28;20167;-48
2023/08/07 09:20:14;;;;;;;10.33;3.10;;;;;;;;;;5115312;28;20163;-49
2023/08/07 09:22:41;;;;;;;12.33;3.00;;;;;;;;;;5114372;28;20302;-52
2023/08/07 09:25:09;;;;;;;9.97;2.73;;;;;;;;;;5113288;28;20233;-49
2023/08/07 09:27:36;;;;;;;18.33;3.47;;;;;;;;;;5113336;28;20163;-47
2023/08/07 09:30:02;;;;;;;7.57;2.70;;;;;;;;;;5113933;28;20235;-52
2023/08/07 09:32:28;;;;;;;18.83;3.37;;;;;;;;;;5113685;28;20171;-51
2023/08/07 09:34:55;;;;;;;9.00;2.83;;;;;;;;;;5110849;28;20270;-48
2023/08/07 09:37:21;;;;;;;9.13;2.77;;;;;;;;;;5111220;28;20217;-51
2023/08/07 09:39:48;;;;;;;10.47;2.70;;;;;;;;;;5112806;28;20175;-50
2023/08/07 09:42:17;;;;;;;10.77;2.70;;;;;;;;;;5110901;28;20458;-52
2023/08/07 09:44:44;;;;;;;7.73;2.97;;;;;;;;;;5111692;28;20168;-49
2023/08/07 09:47:14;;;;;;;8.40;2.50;;;;;;;;;;5111690;28;20255;-50
2023/08/07 09:49:43;;;;;;;7.33;2.63;;;;;;;;;;5112295;28;20698;-47
2023/08/07 09:52:13;;;;;;;9.43;2.73;;;;;;;;;;5112476;28;20187;-48
2023/08/07 09:54:39;;;;;;;8.80;3.23;;;;;;;;;;5110874;28;20231;-47
2023/08/07 09:57:06;;;;;;;8.20;2.87;;;;;;;;;;5109822;28;20231;-49
2023/08/07 09:59:33;;;;;;;7.77;2.40;;;;;;;;;;5112095;28;20182;-47
2023/08/07 10:02:04;;;;;;;8.87;2.83;;;;;;;;;;5112220;28;20644;-52
2023/08/07 10:04:31;;;;;;;7.30;2.27;;;;;;;;;;5113725;28;20176;-48
2023/08/07 10:06:58;;;;;;;7.93;2.43;;;;;;;;;;5113531;28;20179;-53
2023/08/07 10:09:24;;;;;;;9.77;3.40;;;;;;;;;;5113788;28;20750;-48
2023/08/07 10:11:51;;;;;;;13.37;3.10;;;;;;;;;;5112108;28;20175;-48
2023/08/07 10:14:17;;;;;;;17.40;3.87;;;;;;;;;;5112536;28;20175;-47
2023/08/07 10:16:43;;;;;;;11.33;2.80;;;;;;;;;;5113863;28;20250;-50
2023/08/07 10:19:11;;;;;;;9.67;2.83;;;;;;;;;;5112573;28;20604;-48
2023/08/07 10:21:39;;;;;;;6.27;2.70;;;;;;;;;;5114480;28;20167;-53
2023/08/07 10:24:05;;;;;;;5.33;2.20;;;;;;;;;;5113130;28;20267;-51
2023/08/07 10:26:33;;;;;;;8.67;2.33;;;;;;;;;;5114423;28;20457;-50
2023/08/07 10:29:01;;;;;;;8.87;2.70;;;;;;;;;;5114572;28;20190;-51
2023/08/07 10:31:27;;;;;;;10.43;2.97;;;;;;;;;;5112872;28;20174;-50
2023/08/07 10:33:53;;;;;;;8.03;3.03;;;;;;;;;;5112954;28;20198;-49
2023/08/07 10:36:19;;;;;;;6.40;2.73;;;;;;;;;;5113087;28;20171;-54
2023/08/07 10:38:45;;;;;;;7.20;2.40;;;;;;;;;;5112769;28;20175;-52
2023/08/07 10:41:15;;;;;;;10.23;2.80;;;;;;;;;;5112549;28;20248;-54
2023/08/07 10:43:43;;;;;;;7.47;2.20;;;;;;;;;;5108850;28;20207;-54
2023/08/07 10:46:10;;;;;;;12.33;2.77;;;;;;;;;;5108875;28;20224;-53
2023/08/07 10:49:01;;;;;;;10.93;2.97;;;;;;;;;;5109734;28;20195;-51
2023/08/07 10:51:32;;;;;;;5.63;2.20;;;;;;;;;;5111203;28;20256;-50
2023/08/07 10:53:57;;;;;;;9.97;2.33;;;;;;;;;;5111964;28;20171;-53
2023/08/07 10:56:31;;;;;;;9.40;2.80;;;;;;;;;;5112431;28;20201;-49
2023/08/07 10:58:57;;;;;;;8.60;2.30;;;;;;;;;;5112030;28;20187;-50
2023/08/07 11:01:28;;;;;;;16.50;3.30;;;;;;;;;;5111285;28;20237;-53
2023/08/07 11:03:55;;;;;;;6.17;2.73;;;;;;;;;;5113992;28;20234;-53
2023/08/07 11:06:22;;;;;;;12.57;2.27;;;;;;;;;;5113436;28;20167;-49
2023/08/07 11:08:50;;;;;;;7.37;2.23;;;;;;;;;;5113435;28;20233;-52
2023/08/07 11:11:17;;;;;;;12.97;2.77;;;;;;;;;;5114923;28;20186;-52
2023/08/07 11:13:44;;;;;;;5.57;2.40;;;;;;;;;;5115861;28;20182;-51
2023/08/07 11:16:11;;;;;;;10.53;2.87;;;;;;;;;;5117293;28;20167;-50
2023/08/07 11:18:42;;;;;;;8.87;1.97;;;;;;;;;;5116565;28;20555;-53
2023/08/07 11:21:12;;;;;;;7.03;2.40;;;;;;;;;;5117871;28;20435;-52
2023/08/07 11:23:39;;;;;;;10.27;1.83;;;;;;;;;;5118040;28;20207;-49
2023/08/07 11:26:05;;;;;;;3.77;1.70;;;;;;;;;;5117344;28;20172;-49
2023/08/07 11:28:32;;;;;;;7.20;2.03;;;;;;;;;;5116210;28;20167;-52
2023/08/07 11:31:00;;;;;;;8.23;1.87;;;;;;;;;;5116148;28;20383;-50
2023/08/07 11:33:26;;;;;;;4.80;1.60;;;;;;;;;;5116610;28;20178;-50
2023/08/07 11:35:52;;;;;;;11.27;1.90;;;;;;;;;;5115181;28;20266;-54
2023/08/07 11:38:38;;;;;;;7.60;2.43;;;;;;;;;;5114182;28;20254;-53
2023/08/07 11:41:05;;;;;;;5.23;2.40;;;;;;;;;;5114432;28;20171;-49
2023/08/07 11:43:35;;;;;;;6.33;2.17;;;;;;;;;;5116006;28;20286;-50
2023/08/07 11:46:02;;;;;;;9.20;2.87;;;;;;;;;;5114441;28;20163;-51
2023/08/07 11:48:28;;;;;;;8.80;2.63;;;;;;;;;;5114915;28;20203;-49
2023/08/07 11:50:56;;;;;;;6.73;2.20;;;;;;;;;;5115521;28;20692;-49
2023/08/07 11:53:23;;;;;;;6.63;2.20;;;;;;;;;;5116192;28;20187;-48
2023/08/07 11:55:54;;;;;;;9.10;1.90;;;;;;;;;;5116839;28;20174;-52
2023/08/07 11:58:20;;;;;;;7.27;2.47;;;;;;;;;;5116144;28;20214;-52
2023/08/07 12:00:47;;;;;;;6.23;2.17;;;;;;;;;;5116211;28;20322;-51
2023/08/07 12:03:27;;;;;;;6.70;1.70;;;;;;;;;;5116437;28;20263;-54
2023/08/07 12:05:54;;;;;;;5.03;1.60;;;;;;;;;;5116053;28;20227;-49
2023/08/07 12:08:21;;;;;;;7.17;2.00;;;;;;;;;;5115696;28;20156;-50
2023/08/07 12:10:54;;;;;;;5.83;2.03;;;;;;;;;;5116533;28;20206;-51
2023/08/07 12:13:27;;;;;;;8.20;2.97;;;;;;;;;;5115814;28;20233;-50
2023/08/07 12:15:58;;;;;;;9.23;2.60;;;;;;;;;;5113603;28;20542;-54
2023/08/07 12:18:26;;;;;;;5.30;2.27;;;;;;;;;;5114109;28;20270;-50
2023/08/07 12:20:52;;;;;;;4.73;2.37;;;;;;;;;;5112378;28;20171;-48
2023/08/07 12:23:19;;;;;;;6.67;1.73;;;;;;;;;;5115455;28;20207;-53
2023/08/07 12:25:45;;;;;;;4.97;1.70;;;;;;;;;;5112331;28;20351;-55
2023/08/07 12:28:11;;;;;;;4.90;1.70;;;;;;;;;;5113607;28;20258;-50
2023/08/07 12:30:39;;;;;;;6.63;2.20;;;;;;;;;;5112118;28;20531;-52
2023/08/07 12:33:07;;;;;;;4.10;1.90;;;;;;;;;;5112897;28;20175;-52
2023/08/07 12:35:33;;;;;;;5.13;2.23;;;;;;;;;;5114213;28;20211;-50
2023/08/07 12:38:00;;;;;;;10.93;2.03;;;;;;;;;;5114292;28;20260;-52
2023/08/07 12:40:26;;;;;;;8.93;2.50;;;;;;;;;;5114364;28;20172;-50
2023/08/07 12:42:52;;;;;;;6.07;2.17;;;;;;;;;;5114409;28;20690;-55
2023/08/07 12:45:20;;;;;;;6.97;2.37;;;;;;;;;;5116289;28;20178;-52
2023/08/07 12:47:47;;;;;;;9.27;2.90;;;;;;;;;;5116128;28;20248;-54
2023/08/07 12:50:13;;;;;;;9.53;3.00;;;;;;;;;;5115016;28;20478;-52
2023/08/07 12:52:41;;;;;;;6.60;2.10;;;;;;;;;;5115096;28;20179;-54
2023/08/07 12:55:07;;;;;;;9.00;2.13;;;;;;;;;;5115319;28;20281;-52
2023/08/07 12:57:33;;;;;;;7.90;2.37;;;;;;;;;;5115160;28;20468;-51
2023/08/07 12:59:59;;;;;;;8.53;2.90;;;;;;;;;;5114769;28;20638;-53
2023/08/07 13:02:26;;;;;;;12.77;2.77;;;;;;;;;;5115821;28;20214;-54
2023/08/07 13:04:53;;;;;;;9.17;2.27;;;;;;;;;;5116020;28;20176;-53
2023/08/07 13:07:19;;;;;;;3.43;2.07;;;;;;;;;;5115032;28;20163;-50
2023/08/07 13:09:47;;;;;;;8.90;2.17;;;;;;;;;;5115455;28;20221;-53
2023/08/07 13:12:13;;;;;;;7.03;2.20;;;;;;;;;;5115941;28;20175;-51
2023/08/07 13:14:39;;;;;;;7.17;2.50;;;;;;;;;;5114975;28;20175;-52
2023/08/07 13:17:05;;;;;;;11.87;3.00;;;;;;;;;;5113821;28;20750;-54
2023/08/07 13:19:31;;;;;;;4.70;2.10;;;;;;;;;;5113515;28;20171;-52
2023/08/07 13:21:57;;;;;;;7.00;1.90;;;;;;;;;;5114354;28;20186;-53
2023/08/07 13:24:23;;;;;;;5.83;2.20;;;;;;;;;;5114130;28;20164;-53
2023/08/07 13:26:49;;;;;;;5.83;2.47;;;;;;;;;;5113448;28;20278;-53
2023/08/07 13:29:15;;;;;;;8.83;2.23;;;;;;;;;;5113363;28;20175;-52
2023/08/07 13:31:41;;;;;;;9.70;2.50;;;;;;;;;;5115075;28;20176;-53
2023/08/07 13:34:10;;;;;;;10.50;3.20;;;;;;;;;;5114074;28;20171;-54
2023/08/07 13:36:38;;;;;;;7.10;2.17;;;;;;;;;;5114654;28;20670;-54
2023/08/07 13:39:07;;;;;;;11.53;3.77;;;;;;;;;;5114223;28;20453;-53
2023/08/07 13:41:33;;;;;;;10.90;2.60;;;;;;;;;;5113631;28;20448;-51
2023/08/07 13:43:59;;;;;;;9.07;2.37;;;;;;;;;;5114117;28;20267;-53
2023/08/07 13:46:26;;;;;;;9.10;3.07;;;;;;;;;;5113746;28;20171;-53
2023/08/07 13:48:52;;;;;;;10.67;3.07;;;;;;;;;;5111446;28;20173;-52
2023/08/07 13:51:18;;;;;;;8.57;2.67;;;;;;;;;;5111232;28;20167;-51
2023/08/07 13:53:44;;;;;;;14.67;2.70;;;;;;;;;;5112536;28;20214;-53
2023/08/07 13:56:14;;;;;;;8.40;2.63;;;;;;;;;;5111437;28;20211;-55
2023/08/07 13:58:40;;;;;;;7.03;2.67;;;;;;;;;;5111735;28;20239;-49
2023/08/07 14:01:08;;;;;;;7.70;2.87;;;;;;;;;;5111021;28;20805;-51
2023/08/07 14:03:34;;;;;;;10.47;3.07;;;;;;;;;;5108709;28;20519;-53
2023/08/07 14:06:00;;;;;;;10.13;2.70;;;;;;;;;;5105250;28;20167;-56
2023/08/07 14:08:26;;;;;;;6.53;2.50;;;;;;;;;;5106539;28;20171;-54
2023/08/07 14:10:52;;;;;;;8.03;3.03;;;;;;;;;;5107959;28;20168;-54
2023/08/07 14:13:18;;;;;;;12.03;3.70;;;;;;;;;;5109212;28;20669;-52
2023/08/07 14:15:44;;;;;;;9.63;3.67;;;;;;;;;;5108213;28;20277;-55
2023/08/07 14:18:11;;;;;;;14.73;2.83;;;;;;;;;;5107424;28;20167;-55
2023/08/07 14:20:38;;;;;;;9.00;2.40;;;;;;;;;;5113096;28;20167;-51
2023/08/07 14:23:04;;;;;;;10.60;2.73;;;;;;;;;;5111492;28;21279;-54
2023/08/07 14:25:30;;;;;;;6.57;2.80;;;;;;;;;;5110955;28;20273;-51
2023/08/07 14:27:56;;;;;;;7.10;2.60;;;;;;;;;;5111034;28;20207;-56
2023/08/07 14:30:22;;;;;;;9.97;2.83;;;;;;;;;;5112282;28;20182;-53
2023/08/07 14:32:48;;;;;;;8.90;3.17;;;;;;;;;;5113601;28;20167;-49
2023/08/07 14:35:14;;;;;;;7.60;3.10;;;;;;;;;;5112474;28;20174;-52
2023/08/07 14:37:41;;;;;;;9.73;2.50;;;;;;;;;;5112549;28;20182;-50
2023/08/07 14:40:07;;;;;;;8.90;2.80;;;;;;;;;;5111968;28;20175;-53
2023/08/07 14:42:33;;;;;;;7.73;2.70;;;;;;;;;;5113262;28;20198;-48